This is the latest recevied weather packets stored in our database for station/object OE-11272. If no packets are shown the sender has not sent any weather packets the latest 10 day(s).
| Time | Temp. | Humidity | Pressure | Rain* | Wind** | Luminosity | Snow |
|---|---|---|---|---|---|---|---|
| 1787906498 | 23.33° C | 72% | 1015.1 hPa | 0 mm | - | 350 W/m² | - |
| 1787906123 | 23.33° C | 75% | 1014.9 hPa | 0 mm | - | 468 W/m² | - |
| 1787904699 | 21.67° C | 81% | 1015.4 hPa | 0 mm | - | 375 W/m² | - |
| 1787904326 | 21.67° C | 81% | 1015.4 hPa | 0 mm | - | 393 W/m² | - |
| 1787903726 | 21.11° C | 85% | 1015.5 hPa | 0 mm | - | 306 W/m² | - |
| 1787902898 | 20.56° C | 87% | 1015.6 hPa | 0 mm | - | 231 W/m² | - |
| 1787902526 | 20° C | 88% | 1015.7 hPa | 0 mm | - | 169 W/m² | - |
| 1787901926 | 20° C | 92% | 1016 hPa | 0 mm | - | 119 W/m² | - |
| 1787901099 | 20° C | 92% | 1015.9 hPa | 0 mm | - | 94 W/m² | - |
| 1787900725 | 19.44° C | 91% | 1015.7 hPa | 0 mm | - | 94 W/m² | - |
| 1787900126 | 19.44° C | 92% | 1015.7 hPa | 0 mm | - | 106 W/m² | - |
| 1787899299 | 19.44° C | 93% | 1015.8 hPa | 0 mm | - | 131 W/m² | - |
| 1787898926 | 20° C | 90% | 1015.9 hPa | 0 mm | - | 125 W/m² | - |
| 1787898326 | 20° C | 89% | 1016 hPa | 0 mm | - | 112 W/m² | - |
| 1787897498 | 19.44° C | 91% | 1016.1 hPa | 0 mm | - | 119 W/m² | - |
| 1787897125 | 19.44° C | 93% | 1016.2 hPa | 0 mm | - | 125 W/m² | - |
| 1787896525 | 18.89° C | 94% | 1016.4 hPa | 0 mm | - | 131 W/m² | - |
| 1787895698 | 17.78° C | 99% | 1016.6 hPa | 0 mm | - | 119 W/m² | - |
| 1787895326 | 17.78° C | 100% | 1016.4 hPa | 0 mm | - | 94 W/m² | - |
| 1787894726 | 17.22° C | 100% | 1016.4 hPa | 0 mm | - | 62 W/m² | - |
| 1787893899 | 16.67° C | 100% | 1016.7 hPa | 0 mm | - | 37 W/m² | - |
| 1787893526 | 16.67° C | 100% | 1016.5 hPa | 0 mm | - | 25 W/m² | - |
| 1787892926 | 16.11° C | 100% | 1016.5 hPa | 0 mm | - | 12 W/m² | - |
| 1787892098 | 16.11° C | 100% | 1016.4 hPa | 0 mm | - | 6 W/m² | - |
| 1787891725 | 16.11° C | 100% | 1016.5 hPa | 0 mm | - | 0 W/m² | - |
* Rain latest hour (hover to see other rain measurements)
** Current wind speed in m/s (hover to see current wind gust speed)